createdAt,value
2017-12-30T00:00:11.221Z,5.07
2017-12-30T00:02:39.542Z,5.22
2017-12-30T00:05:07.488Z,4.87
2017-12-30T00:07:36.127Z,5.07
2017-12-30T00:10:04.117Z,5.15
2017-12-30T00:12:32.483Z,5.50
2017-12-30T00:15:00.923Z,4.93
2017-12-30T00:17:28.889Z,4.15
2017-12-30T00:19:57.087Z,4.62
2017-12-30T00:22:25.089Z,4.40
2017-12-30T00:24:54.634Z,4.22
2017-12-30T00:27:24.605Z,4.32
2017-12-30T00:29:52.498Z,4.00
2017-12-30T00:32:20.558Z,4.40
2017-12-30T00:34:48.439Z,4.55
2017-12-30T00:37:16.357Z,4.65
2017-12-30T00:39:45.146Z,5.12
2017-12-30T00:42:13.147Z,4.32
2017-12-30T00:44:41.049Z,6.68
2017-12-30T00:47:08.986Z,5.40
2017-12-30T00:49:36.922Z,7.68
2017-12-30T00:52:04.819Z,7.32
2017-12-30T00:54:32.763Z,4.60
2017-12-30T00:57:00.787Z,5.40
2017-12-30T00:59:28.689Z,4.28
2017-12-30T01:01:56.630Z,4.40
2017-12-30T01:04:24.528Z,5.18
2017-12-30T01:06:52.483Z,4.05
2017-12-30T01:09:21.132Z,5.03
2017-12-30T01:11:49.082Z,4.68
2017-12-30T01:14:16.964Z,5.68
2017-12-30T01:16:44.910Z,4.60
2017-12-30T01:19:12.803Z,4.93
2017-12-30T01:21:40.733Z,4.60
2017-12-30T01:24:08.603Z,4.20
2017-12-30T01:26:37.704Z,4.90
2017-12-30T01:29:05.594Z,4.15
2017-12-30T01:31:33.544Z,4.60
2017-12-30T01:34:01.445Z,4.60
2017-12-30T01:36:29.385Z,4.87
2017-12-30T01:38:57.271Z,4.65
2017-12-30T01:41:25.217Z,5.60
2017-12-30T01:43:53.095Z,5.78
2017-12-30T01:46:21.028Z,7.30
2017-12-30T01:49:00.491Z,8.30
2017-12-30T01:51:28.434Z,6.47
2017-12-30T01:53:56.312Z,6.20
2017-12-30T01:56:24.267Z,6.95
2017-12-30T01:58:52.168Z,7.03
2017-12-30T02:01:20.109Z,7.37
2017-12-30T02:03:48.045Z,7.05
2017-12-30T02:06:15.949Z,7.40
2017-12-30T02:08:43.944Z,6.10
2017-12-30T02:11:11.834Z,6.18
2017-12-30T02:13:39.791Z,7.20
2017-12-30T02:16:13.494Z,7.32
2017-12-30T02:18:41.448Z,6.05
2017-12-30T02:21:09.334Z,7.00
2017-12-30T02:23:37.261Z,6.85
2017-12-30T02:26:05.169Z,6.72
2017-12-30T02:28:33.057Z,6.45
2017-12-30T02:31:00.999Z,8.82
2017-12-30T02:33:28.937Z,6.65
2017-12-30T02:35:56.824Z,7.07
2017-12-30T02:38:24.761Z,6.57
2017-12-30T02:40:52.647Z,7.15
2017-12-30T02:43:20.583Z,7.25
2017-12-30T02:45:48.513Z,6.15
2017-12-30T02:48:16.445Z,7.03
2017-12-30T02:50:44.318Z,6.10
2017-12-30T02:53:12.204Z,6.53
2017-12-30T02:55:40.909Z,6.30
2017-12-30T02:58:08.779Z,6.15
2017-12-30T03:00:36.778Z,5.37
2017-12-30T03:03:04.658Z,5.47
2017-12-30T03:05:32.601Z,5.72
2017-12-30T03:08:00.607Z,6.65
2017-12-30T03:10:28.531Z,5.82
2017-12-30T03:12:56.405Z,6.32
2017-12-30T03:15:24.338Z,5.82
2017-12-30T03:17:53.011Z,6.00
2017-12-30T03:20:20.955Z,6.25
2017-12-30T03:22:48.837Z,6.90
2017-12-30T03:25:16.791Z,7.07
2017-12-30T03:27:44.674Z,8.85
2017-12-30T03:30:12.575Z,6.82
2017-12-30T03:32:40.511Z,6.57
2017-12-30T03:35:08.441Z,6.80
2017-12-30T03:37:37.538Z,5.68
2017-12-30T03:40:05.429Z,5.90
2017-12-30T03:42:33.376Z,7.25
2017-12-30T03:45:01.261Z,6.05
2017-12-30T03:47:29.199Z,6.93
2017-12-30T03:49:57.101Z,7.10
2017-12-30T03:52:25.043Z,5.62
2017-12-30T03:54:52.925Z,5.07
2017-12-30T03:57:20.862Z,6.10
2017-12-30T03:59:48.751Z,5.10
2017-12-30T04:02:16.677Z,6.62
2017-12-30T04:04:44.597Z,5.78
2017-12-30T04:07:12.587Z,6.10
2017-12-30T04:09:40.537Z,6.70
2017-12-30T04:12:08.440Z,6.97
2017-12-30T04:14:36.376Z,6.20
2017-12-30T04:17:04.257Z,7.00
2017-12-30T04:19:32.188Z,6.30
2017-12-30T04:22:00.066Z,6.90
2017-12-30T04:24:28.007Z,6.25
2017-12-30T04:26:55.884Z,5.30
2017-12-30T04:29:24.588Z,5.10
2017-12-30T04:31:52.468Z,5.07
2017-12-30T04:34:20.416Z,5.95
2017-12-30T04:36:51.238Z,6.20
2017-12-30T04:39:19.947Z,6.05
2017-12-30T04:41:47.836Z,4.60
2017-12-30T04:44:15.768Z,4.72
2017-12-30T04:46:44.409Z,5.53
2017-12-30T04:49:12.338Z,4.03
2017-12-30T04:51:40.220Z,3.95
2017-12-30T04:54:08.159Z,5.53
2017-12-30T04:56:36.049Z,4.35
2017-12-30T04:59:03.992Z,4.43
2017-12-30T05:01:31.887Z,6.47
2017-12-30T05:03:59.761Z,5.15
2017-12-30T05:06:31.529Z,4.22
2017-12-30T05:08:59.417Z,4.50
2017-12-30T05:11:27.357Z,4.57
2017-12-30T05:13:55.244Z,5.45
2017-12-30T05:16:23.176Z,4.32
2017-12-30T05:18:51.822Z,5.00
2017-12-30T05:21:19.776Z,4.80
2017-12-30T05:23:47.912Z,4.10
2017-12-30T05:26:15.862Z,4.37
2017-12-30T05:28:43.750Z,5.43
2017-12-30T05:31:11.688Z,5.10
2017-12-30T05:33:39.597Z,5.03
2017-12-30T05:36:15.728Z,4.90
2017-12-30T05:38:43.629Z,4.32
2017-12-30T05:41:11.568Z,3.72
2017-12-30T05:43:39.444Z,5.03
2017-12-30T05:46:07.403Z,5.15
2017-12-30T05:48:35.298Z,4.22
2017-12-30T05:51:03.249Z,5.62
2017-12-30T05:53:31.959Z,4.30
2017-12-30T05:55:59.849Z,4.80
2017-12-30T05:58:27.813Z,4.00
2017-12-30T06:00:55.748Z,3.58
2017-12-30T06:03:23.706Z,3.20
2017-12-30T06:05:51.651Z,4.12
2017-12-30T06:08:19.672Z,3.20
2017-12-30T06:10:47.599Z,2.85
2017-12-30T06:13:15.553Z,3.40
2017-12-30T06:15:43.439Z,2.65
2017-12-30T06:18:11.407Z,3.30
2017-12-30T06:20:39.284Z,3.55
2017-12-30T06:23:07.246Z,3.15
2017-12-30T06:25:35.148Z,3.25
2017-12-30T06:28:03.088Z,2.70
2017-12-30T06:30:31.013Z,3.60
2017-12-30T06:32:58.910Z,2.75
2017-12-30T06:35:26.840Z,3.37
2017-12-30T06:37:54.770Z,4.18
2017-12-30T06:40:22.735Z,3.08
2017-12-30T06:42:50.630Z,3.42
2017-12-30T06:45:19.351Z,2.90
2017-12-30T06:47:47.385Z,3.20
2017-12-30T06:50:16.088Z,3.20
2017-12-30T06:52:44.760Z,3.72
2017-12-30T06:55:13.459Z,4.18
2017-12-30T06:57:41.541Z,3.60
2017-12-30T07:00:09.480Z,3.47
2017-12-30T07:02:37.366Z,4.30
2017-12-30T07:05:06.064Z,3.58
2017-12-30T07:07:33.940Z,4.68
2017-12-30T07:10:01.883Z,3.50
2017-12-30T07:12:30.572Z,4.35
2017-12-30T07:14:59.221Z,3.87
2017-12-30T07:17:27.152Z,3.90
2017-12-30T07:19:55.067Z,4.12
2017-12-30T07:22:23.784Z,4.25
2017-12-30T07:24:52.428Z,5.03
2017-12-30T07:27:20.350Z,3.97
2017-12-30T07:29:48.237Z,3.83
2017-12-30T07:32:16.216Z,4.32
2017-12-30T07:34:44.641Z,4.50
2017-12-30T07:37:13.781Z,4.10
2017-12-30T07:39:41.775Z,4.60
2017-12-30T07:42:09.741Z,3.50
2017-12-30T07:44:37.662Z,3.60
2017-12-30T07:47:05.637Z,3.40
2017-12-30T07:49:34.126Z,3.92
2017-12-30T07:52:03.005Z,3.50
2017-12-30T07:54:30.897Z,3.62
2017-12-30T07:56:58.936Z,3.45
2017-12-30T07:59:26.893Z,3.45
2017-12-30T08:01:54.776Z,3.50
2017-12-30T08:04:22.701Z,3.08
2017-12-30T08:06:50.576Z,3.17
2017-12-30T08:09:18.511Z,3.22
2017-12-30T08:11:46.446Z,4.35
2017-12-30T08:14:19.478Z,3.58
2017-12-30T08:16:47.370Z,2.35
2017-12-30T08:19:15.292Z,2.58
2017-12-30T08:21:43.173Z,3.30
2017-12-30T08:24:11.093Z,3.00
2017-12-30T08:26:39.184Z,3.03
2017-12-30T08:29:07.131Z,2.50
2017-12-30T08:31:36.477Z,2.45
2017-12-30T08:34:04.505Z,2.65
2017-12-30T08:36:32.435Z,2.97
2017-12-30T08:39:00.426Z,3.35
2017-12-30T08:41:28.379Z,2.95
2017-12-30T08:43:56.313Z,3.40
2017-12-30T08:46:30.221Z,3.17
2017-12-30T08:49:01.965Z,2.83
2017-12-30T08:51:31.688Z,3.12
2017-12-30T08:54:02.523Z,2.58
2017-12-30T08:56:34.505Z,3.22
2017-12-30T08:59:07.746Z,2.45
2017-12-30T09:01:39.541Z,2.70
2017-12-30T09:04:11.551Z,2.08
2017-12-30T09:06:42.874Z,1.95
2017-12-30T09:09:15.901Z,1.73
2017-12-30T09:11:46.484Z,1.95
2017-12-30T09:14:18.818Z,1.30
2017-12-30T09:16:49.300Z,1.70
2017-12-30T09:19:20.095Z,1.12
2017-12-30T09:21:51.180Z,1.08
2017-12-30T09:24:22.122Z,1.20
2017-12-30T09:26:54.738Z,1.20
2017-12-30T09:29:25.337Z,1.48
2017-12-30T09:31:53.365Z,1.23
2017-12-30T09:34:21.345Z,1.20
2017-12-30T09:36:49.231Z,1.30
2017-12-30T09:39:17.995Z,1.08
2017-12-30T09:41:45.977Z,1.50
2017-12-30T09:44:13.908Z,1.05
2017-12-30T09:46:41.881Z,0.90
2017-12-30T09:49:09.801Z,1.10
2017-12-30T09:51:37.724Z,0.73
2017-12-30T09:54:05.665Z,0.70
2017-12-30T09:56:35.252Z,0.80
2017-12-30T09:59:03.199Z,1.65
2017-12-30T10:01:31.285Z,1.00
2017-12-30T10:03:59.203Z,1.12
2017-12-30T10:06:27.757Z,1.00
2017-12-30T10:08:55.670Z,1.00
2017-12-30T10:11:24.189Z,1.10
2017-12-30T10:13:52.097Z,1.25
2017-12-30T10:16:20.847Z,0.80
2017-12-30T10:18:50.120Z,1.00
2017-12-30T10:21:18.043Z,0.60
2017-12-30T10:23:45.933Z,0.90
2017-12-30T10:26:15.952Z,0.80
2017-12-30T10:28:43.847Z,1.20
2017-12-30T10:31:11.777Z,0.90
2017-12-30T10:33:39.710Z,1.27
2017-12-30T10:36:07.674Z,1.25
2017-12-30T10:38:36.347Z,1.15
2017-12-30T10:41:07.751Z,1.10
2017-12-30T10:43:35.697Z,0.90
2017-12-30T10:46:04.384Z,0.80
2017-12-30T10:48:33.141Z,0.90
2017-12-30T10:51:01.105Z,1.20
2017-12-30T10:53:29.025Z,0.90
2017-12-30T10:55:59.271Z,1.30
2017-12-30T10:58:27.342Z,1.20
2017-12-30T11:00:59.824Z,1.20
2017-12-30T11:03:27.799Z,1.17
2017-12-30T11:05:55.779Z,0.90
2017-12-30T11:08:23.670Z,1.25
2017-12-30T11:10:51.684Z,1.25
2017-12-30T11:13:19.674Z,1.70
2017-12-30T11:15:47.648Z,1.10
2017-12-30T11:18:15.550Z,1.60
2017-12-30T11:20:43.548Z,1.50
2017-12-30T11:23:11.465Z,0.75
2017-12-30T11:25:39.427Z,1.00
2017-12-30T11:28:07.430Z,1.40
2017-12-30T11:30:35.461Z,1.17
2017-12-30T11:33:03.379Z,1.48
2017-12-30T11:35:31.362Z,1.12
2017-12-30T11:37:59.254Z,1.27
2017-12-30T11:40:27.235Z,1.42
2017-12-30T11:42:55.142Z,1.35
2017-12-30T11:45:23.124Z,1.70
2017-12-30T11:47:51.013Z,1.10
2017-12-30T11:50:18.960Z,1.00
2017-12-30T11:52:46.896Z,1.30
2017-12-30T11:55:14.890Z,1.25
2017-12-30T11:57:42.850Z,2.20
2017-12-30T12:00:10.815Z,1.37
2017-12-30T12:02:38.771Z,2.05
2017-12-30T12:05:06.672Z,1.67
2017-12-30T12:07:39.534Z,1.42
2017-12-30T12:10:07.441Z,2.05
2017-12-30T12:12:35.363Z,1.65
2017-12-30T12:15:04.076Z,2.78
2017-12-30T12:17:32.492Z,2.05
2017-12-30T12:20:00.377Z,3.47
2017-12-30T12:22:28.336Z,3.30
2017-12-30T12:24:56.237Z,4.72
2017-12-30T12:27:29.953Z,5.03
2017-12-30T12:29:57.865Z,3.90
2017-12-30T12:32:26.588Z,4.20
2017-12-30T12:34:54.505Z,4.37
2017-12-30T12:37:22.456Z,2.37
2017-12-30T12:39:50.335Z,3.08
2017-12-30T12:42:18.317Z,2.50
2017-12-30T12:44:46.213Z,4.35
2017-12-30T12:47:14.903Z,3.33
2017-12-30T12:49:42.881Z,3.65
2017-12-30T12:52:10.813Z,4.50
2017-12-30T12:54:38.778Z,3.42
2017-12-30T12:57:06.738Z,2.12
2017-12-30T12:59:34.686Z,4.57
2017-12-30T13:02:02.583Z,2.87
2017-12-30T13:04:30.518Z,3.00
2017-12-30T13:06:58.396Z,3.12
2017-12-30T13:09:27.097Z,3.65
2017-12-30T13:11:54.987Z,3.22
2017-12-30T13:14:24.283Z,5.10
2017-12-30T13:16:52.212Z,5.32
2017-12-30T13:19:20.132Z,4.90
2017-12-30T13:21:48.027Z,4.22
2017-12-30T13:24:15.985Z,4.65
2017-12-30T13:26:50.021Z,4.20
2017-12-30T13:29:17.961Z,4.70
2017-12-30T13:31:45.867Z,5.37
2017-12-30T13:34:13.805Z,3.42
2017-12-30T13:36:41.739Z,4.47
2017-12-30T13:39:09.665Z,5.97
2017-12-30T13:41:37.609Z,3.87
2017-12-30T13:44:06.260Z,4.25
2017-12-30T13:46:37.782Z,4.28
2017-12-30T13:49:05.672Z,4.25
2017-12-30T13:51:33.615Z,5.03
2017-12-30T13:54:01.507Z,11.00
2017-12-30T13:56:29.471Z,6.03
2017-12-30T13:58:57.420Z,6.57
2017-12-30T14:01:25.372Z,6.15
2017-12-30T14:03:53.270Z,5.57
2017-12-30T14:06:21.256Z,5.68
2017-12-30T14:08:49.142Z,6.93
2017-12-30T14:11:17.084Z,6.28
2017-12-30T14:13:44.970Z,5.85
2017-12-30T14:16:16.526Z,6.87
2017-12-30T14:18:44.406Z,7.68
2017-12-30T14:21:12.499Z,7.03
2017-12-30T14:23:40.386Z,7.07
2017-12-30T14:26:09.052Z,6.35
2017-12-30T14:28:37.022Z,6.53
2017-12-30T14:31:04.960Z,7.00
2017-12-30T14:33:32.897Z,6.62
2017-12-30T14:36:00.794Z,7.55
2017-12-30T14:38:28.749Z,5.78
2017-12-30T14:40:56.674Z,6.37
2017-12-30T14:43:24.609Z,6.97
2017-12-30T14:45:52.485Z,7.87
2017-12-30T14:48:20.418Z,9.52
2017-12-30T14:50:48.321Z,7.37
2017-12-30T14:53:16.353Z,7.40
2017-12-30T14:55:44.244Z,7.03
2017-12-30T14:58:12.156Z,6.12
2017-12-30T15:00:40.046Z,7.75
2017-12-30T15:03:08.006Z,7.20
2017-12-30T15:05:36.637Z,6.95
2017-12-30T15:08:08.185Z,7.82
2017-12-30T15:10:36.099Z,7.28
2017-12-30T15:13:04.006Z,7.15
2017-12-30T15:15:31.969Z,7.45
2017-12-30T15:17:59.850Z,7.97
2017-12-30T15:20:27.784Z,7.37
2017-12-30T15:22:56.491Z,7.03
2017-12-30T15:25:24.445Z,6.85
2017-12-30T15:27:53.079Z,6.87
2017-12-30T15:30:21.029Z,6.80
2017-12-30T15:32:48.927Z,9.75
2017-12-30T15:35:16.864Z,6.70
2017-12-30T15:37:45.008Z,6.07
2017-12-30T15:40:13.692Z,5.72
2017-12-30T15:42:41.644Z,7.72
2017-12-30T15:45:09.640Z,6.10
2017-12-30T15:47:38.334Z,7.32
2017-12-30T15:50:06.220Z,7.65
2017-12-30T15:52:34.149Z,7.55
2017-12-30T15:55:02.061Z,12.90
2017-12-30T15:57:30.001Z,6.22
2017-12-30T15:59:57.889Z,7.97
2017-12-30T16:02:25.854Z,6.45
2017-12-30T16:04:53.799Z,6.45
2017-12-30T16:07:22.065Z,6.55
2017-12-30T16:09:49.981Z,6.45
2017-12-30T16:12:17.954Z,6.32
2017-12-30T16:14:45.896Z,7.53
2017-12-30T16:17:13.835Z,6.37
2017-12-30T16:19:41.783Z,7.90
2017-12-30T16:22:10.129Z,8.18
2017-12-30T16:24:38.102Z,6.70
2017-12-30T16:27:06.003Z,5.50
2017-12-30T16:29:33.955Z,6.53
2017-12-30T16:32:01.872Z,6.05
2017-12-30T16:34:29.819Z,8.23
2017-12-30T16:36:57.831Z,5.60
2017-12-30T16:39:26.550Z,7.12
2017-12-30T16:41:54.439Z,6.65
2017-12-30T16:44:22.401Z,6.97
2017-12-30T16:46:50.294Z,7.05
2017-12-30T16:49:18.267Z,6.43
2017-12-30T16:51:46.158Z,6.03
2017-12-30T16:54:14.101Z,6.93
2017-12-30T16:56:41.990Z,6.62
2017-12-30T16:59:09.892Z,6.00
2017-12-30T17:01:37.857Z,6.05
2017-12-30T17:04:06.004Z,5.70
2017-12-30T17:06:34.117Z,7.57
2017-12-30T17:09:02.031Z,5.65
2017-12-30T17:11:30.034Z,7.03
2017-12-30T17:13:57.947Z,7.50
2017-12-30T17:16:25.911Z,5.87
2017-12-30T17:18:53.818Z,5.70
2017-12-30T17:21:21.778Z,5.35
2017-12-30T17:23:49.727Z,6.00
2017-12-30T17:26:17.687Z,5.68
2017-12-30T17:28:45.599Z,6.05
2017-12-30T17:31:13.557Z,5.47
2017-12-30T17:33:41.462Z,5.75
2017-12-30T17:36:09.486Z,6.30
2017-12-30T17:38:37.409Z,4.70
2017-12-30T17:41:05.333Z,5.35
2017-12-30T17:43:33.309Z,4.75
2017-12-30T17:46:01.222Z,4.65
2017-12-30T17:48:29.177Z,5.18
2017-12-30T17:50:57.830Z,5.82
2017-12-30T17:53:25.768Z,5.15
2017-12-30T17:55:53.677Z,4.93
2017-12-30T17:58:21.634Z,4.60
2017-12-30T18:00:49.567Z,5.15
2017-12-30T18:03:17.504Z,6.10
2017-12-30T18:05:45.439Z,3.80
2017-12-30T18:08:13.381Z,3.97
2017-12-30T18:10:42.076Z,5.30
2017-12-30T18:13:10.066Z,4.75
2017-12-30T18:15:37.981Z,4.43
2017-12-30T18:18:06.697Z,3.75
2017-12-30T18:20:34.586Z,6.12
2017-12-30T18:23:02.470Z,3.80
2017-12-30T18:25:30.442Z,3.87
2017-12-30T18:27:58.378Z,5.15
2017-12-30T18:30:26.342Z,5.37
2017-12-30T18:32:54.309Z,3.80
2017-12-30T18:35:22.254Z,4.43
2017-12-30T18:37:50.716Z,5.43
2017-12-30T18:40:18.665Z,5.62
2017-12-30T18:42:46.617Z,6.65
2017-12-30T18:45:18.035Z,4.85
2017-12-30T18:47:45.993Z,5.40
2017-12-30T18:50:14.661Z,5.03
2017-12-30T18:52:42.618Z,5.10
2017-12-30T18:55:10.527Z,6.32
2017-12-30T18:57:38.520Z,7.22
2017-12-30T19:00:06.447Z,7.35
2017-12-30T19:02:34.405Z,6.37
2017-12-30T19:05:02.297Z,6.40
2017-12-30T19:07:30.242Z,5.43
2017-12-30T19:09:58.134Z,6.30
2017-12-30T19:12:26.098Z,5.85
2017-12-30T19:14:54.006Z,4.90
2017-12-30T19:17:21.986Z,6.00
2017-12-30T19:19:49.876Z,5.10
2017-12-30T19:22:17.824Z,4.10
2017-12-30T19:24:45.732Z,5.60
2017-12-30T19:27:13.872Z,5.03
2017-12-30T19:29:41.772Z,6.32
2017-12-30T19:32:09.698Z,5.53
2017-12-30T19:34:37.631Z,4.40
2017-12-30T19:37:06.302Z,3.55
2017-12-30T19:39:34.275Z,5.10
2017-12-30T19:42:02.184Z,6.62
2017-12-30T19:44:31.459Z,7.05
2017-12-30T19:47:00.129Z,5.60
2017-12-30T19:49:28.074Z,5.37
2017-12-30T19:51:56.017Z,5.43
2017-12-30T19:54:23.991Z,5.53
2017-12-30T19:56:51.923Z,5.70
2017-12-30T19:59:20.669Z,4.00
2017-12-30T20:01:48.570Z,4.37
2017-12-30T20:04:18.070Z,5.97
2017-12-30T20:06:46.972Z,7.43
2017-12-30T20:09:15.692Z,4.53
2017-12-30T20:11:43.610Z,5.55
2017-12-30T20:14:11.549Z,4.82
2017-12-30T20:16:39.565Z,4.30
2017-12-30T20:19:07.496Z,4.68
2017-12-30T20:21:35.496Z,4.40
2017-12-30T20:24:03.453Z,5.37
2017-12-30T20:26:31.360Z,5.20
2017-12-30T20:28:59.313Z,4.72
2017-12-30T20:31:27.212Z,4.35
2017-12-30T20:33:55.157Z,3.70
2017-12-30T20:36:23.904Z,4.53
2017-12-30T20:38:51.867Z,4.10
2017-12-30T20:41:19.765Z,3.97
2017-12-30T20:43:47.726Z,4.57
2017-12-30T20:46:15.877Z,5.70
2017-12-30T20:48:43.954Z,5.90
2017-12-30T20:51:11.873Z,5.70
2017-12-30T20:53:39.776Z,5.90
2017-12-30T20:56:08.820Z,6.30
2017-12-30T20:58:37.310Z,4.72
2017-12-30T21:01:05.228Z,5.70
2017-12-30T21:03:33.212Z,4.90
2017-12-30T21:06:01.166Z,5.97
2017-12-30T21:08:29.111Z,4.53
2017-12-30T21:10:57.009Z,4.87
2017-12-30T21:13:25.037Z,6.20
2017-12-30T21:15:57.328Z,5.40
2017-12-30T21:18:25.280Z,4.47
2017-12-30T21:20:54.515Z,4.22
2017-12-30T21:23:22.613Z,4.78
2017-12-30T21:25:50.527Z,5.97
2017-12-30T21:28:19.251Z,5.90
2017-12-30T21:30:47.157Z,5.07
2017-12-30T21:33:15.119Z,5.25
2017-12-30T21:35:43.016Z,5.75
2017-12-30T21:38:10.977Z,4.65
2017-12-30T21:40:38.901Z,5.40
2017-12-30T21:43:06.861Z,5.37
2017-12-30T21:45:34.778Z,5.35
2017-12-30T21:48:02.730Z,4.80
2017-12-30T21:50:30.605Z,4.70
2017-12-30T21:52:58.560Z,4.28
2017-12-30T21:55:26.475Z,5.72
2017-12-30T21:57:55.529Z,4.07
2017-12-30T22:00:23.419Z,5.30
2017-12-30T22:02:51.362Z,4.35
2017-12-30T22:05:19.242Z,4.55
2017-12-30T22:07:50.881Z,4.53
2017-12-30T22:10:18.835Z,4.75
2017-12-30T22:12:46.748Z,5.10
2017-12-30T22:15:14.702Z,4.25
2017-12-30T22:17:42.593Z,3.30
2017-12-30T22:20:10.552Z,3.33
2017-12-30T22:22:38.993Z,4.53
2017-12-30T22:25:06.909Z,3.42
2017-12-30T22:27:34.819Z,3.75
2017-12-30T22:30:02.819Z,3.40
2017-12-30T22:32:30.757Z,4.18
2017-12-30T22:34:58.735Z,3.95
2017-12-30T22:37:26.772Z,3.62
2017-12-30T22:39:55.481Z,3.60
2017-12-30T22:42:23.381Z,3.60
2017-12-30T22:44:51.350Z,3.47
2017-12-30T22:47:19.323Z,3.40
2017-12-30T22:49:47.259Z,4.43
2017-12-30T22:52:15.160Z,2.60
2017-12-30T22:54:43.122Z,4.30
2017-12-30T22:57:11.042Z,3.53
2017-12-30T22:59:39.769Z,3.00
2017-12-30T23:02:07.678Z,3.67
2017-12-30T23:04:35.641Z,3.37
2017-12-30T23:07:03.620Z,5.32
2017-12-30T23:09:31.566Z,2.33
2017-12-30T23:12:01.742Z,3.60
2017-12-30T23:14:29.829Z,3.42
2017-12-30T23:16:57.730Z,3.15
2017-12-30T23:19:25.691Z,3.75
2017-12-30T23:21:53.604Z,3.70
2017-12-30T23:24:21.631Z,4.50
2017-12-30T23:26:51.597Z,4.15
2017-12-30T23:29:19.557Z,4.32
2017-12-30T23:31:47.448Z,2.67
2017-12-30T23:34:16.171Z,3.30
2017-12-30T23:36:44.070Z,2.75
2017-12-30T23:39:12.039Z,3.17
2017-12-30T23:41:39.924Z,3.67
2017-12-30T23:44:07.882Z,2.80
2017-12-30T23:46:38.459Z,3.50
2017-12-30T23:49:09.521Z,2.90
2017-12-30T23:51:37.604Z,2.78
2017-12-30T23:54:05.539Z,3.30
2017-12-30T23:56:33.474Z,2.75
2017-12-30T23:59:01.411Z,3.15
